sensor_id;sensor_type;location;lat;lon;timestamp;pressure;altitude;pressure_sealevel;temperature;humidity
22582;BME280;47125;48.542;9.052;2023-03-04T00:00:08;96467.38;;;4.30;65.37
22582;BME280;47125;48.542;9.052;2023-03-04T00:10:12;96482.75;;;3.90;66.41
22582;BME280;47125;48.542;9.052;2023-03-04T00:20:15;96476.38;;;3.85;66.65
22582;BME280;47125;48.542;9.052;2023-03-04T00:30:20;96471.84;;;3.79;66.28
22582;BME280;47125;48.542;9.052;2023-03-04T00:40:22;96474.94;;;3.68;67.29
22582;BME280;47125;48.542;9.052;2023-03-04T00:50:26;96481.78;;;3.48;67.74
22582;BME280;47125;48.542;9.052;2023-03-04T01:00:29;96464.19;;;3.40;67.97
22582;BME280;47125;48.542;9.052;2023-03-04T01:10:33;96465.56;;;3.65;67.39
22582;BME280;47125;48.542;9.052;2023-03-04T01:20:36;96460.34;;;3.43;68.02
22582;BME280;47125;48.542;9.052;2023-03-04T01:30:40;96455.63;;;3.23;68.74
22582;BME280;47125;48.542;9.052;2023-03-04T01:40:42;96450.09;;;3.18;68.79
22582;BME280;47125;48.542;9.052;2023-03-04T01:50:46;96449.97;;;3.12;68.52
22582;BME280;47125;48.542;9.052;2023-03-04T02:00:49;96446.66;;;2.95;68.40
22582;BME280;47125;48.542;9.052;2023-03-04T02:10:53;96431.06;;;2.86;68.38
22582;BME280;47125;48.542;9.052;2023-03-04T02:20:59;96429.81;;;2.82;68.01
22582;BME280;47125;48.542;9.052;2023-03-04T02:31:08;96431.03;;;2.71;68.53
22582;BME280;47125;48.542;9.052;2023-03-04T02:41:12;96425.56;;;2.58;69.53
22582;BME280;47125;48.542;9.052;2023-03-04T02:51:17;96422.47;;;2.54;69.43
22582;BME280;47125;48.542;9.052;2023-03-04T03:01:20;96432.06;;;2.47;69.75
22582;BME280;47125;48.542;9.052;2023-03-04T03:11:24;96436.91;;;2.36;69.54
22582;BME280;47125;48.542;9.052;2023-03-04T03:21:27;96430.66;;;2.37;70.16
22582;BME280;47125;48.542;9.052;2023-03-04T03:31:30;96426.66;;;2.18;70.15
22582;BME280;47125;48.542;9.052;2023-03-04T03:41:33;96424.50;;;2.21;70.31
22582;BME280;47125;48.542;9.052;2023-03-04T03:51:37;96424.03;;;2.18;70.91
22582;BME280;47125;48.542;9.052;2023-03-04T04:01:39;96428.59;;;2.24;70.48
22582;BME280;47125;48.542;9.052;2023-03-04T04:11:43;96431.81;;;2.11;70.63
22582;BME280;47125;48.542;9.052;2023-03-04T04:21:46;96437.69;;;2.21;70.58
22582;BME280;47125;48.542;9.052;2023-03-04T04:31:50;96433.41;;;1.90;72.22
22582;BME280;47125;48.542;9.052;2023-03-04T04:41:52;96420.38;;;1.96;71.56
22582;BME280;47125;48.542;9.052;2023-03-04T04:51:56;96431.78;;;1.89;71.69
22582;BME280;47125;48.542;9.052;2023-03-04T05:01:59;96439.06;;;1.79;71.90
22582;BME280;47125;48.542;9.052;2023-03-04T05:12:03;96433.31;;;1.75;72.39
22582;BME280;47125;48.542;9.052;2023-03-04T05:22:05;96431.50;;;1.76;72.70
22582;BME280;47125;48.542;9.052;2023-03-04T05:32:10;96430.53;;;1.68;72.08
22582;BME280;47125;48.542;9.052;2023-03-04T05:42:12;96425.38;;;1.52;72.95
22582;BME280;47125;48.542;9.052;2023-03-04T05:52:16;96433.59;;;1.41;73.92
22582;BME280;47125;48.542;9.052;2023-03-04T06:02:19;96440.63;;;1.65;71.24
22582;BME280;47125;48.542;9.052;2023-03-04T06:12:23;96451.34;;;1.55;70.63
22582;BME280;47125;48.542;9.052;2023-03-04T06:22:25;96464.53;;;1.39;71.45
22582;BME280;47125;48.542;9.052;2023-03-04T06:32:29;96469.03;;;1.23;72.08
22582;BME280;47125;48.542;9.052;2023-03-04T06:42:31;96485.22;;;1.50;71.69
22582;BME280;47125;48.542;9.052;2023-03-04T06:52:35;96490.00;;;1.55;71.43
22582;BME280;47125;48.542;9.052;2023-03-04T07:02:39;96499.69;;;1.54;72.65
22582;BME280;47125;48.542;9.052;2023-03-04T07:12:43;96511.69;;;1.65;73.45
22582;BME280;47125;48.542;9.052;2023-03-04T07:22:45;96508.34;;;1.79;73.60
22582;BME280;47125;48.542;9.052;2023-03-04T07:32:49;96515.03;;;1.98;73.79
22582;BME280;47125;48.542;9.052;2023-03-04T07:42:52;96523.03;;;2.04;74.22
22582;BME280;47125;48.542;9.052;2023-03-04T07:52:56;96536.97;;;2.21;74.11
22582;BME280;47125;48.542;9.052;2023-03-04T08:02:59;96538.31;;;2.48;73.01
22582;BME280;47125;48.542;9.052;2023-03-04T08:13:02;96529.84;;;2.30;74.21
22582;BME280;47125;48.542;9.052;2023-03-04T08:23:05;96546.63;;;2.37;74.81
22582;BME280;47125;48.542;9.052;2023-03-04T08:33:09;96548.97;;;2.85;73.32
22582;BME280;47125;48.542;9.052;2023-03-04T08:43:11;96561.13;;;2.86;73.89
22582;BME280;47125;48.542;9.052;2023-03-04T08:53:15;96575.22;;;2.78;74.34
22582;BME280;47125;48.542;9.052;2023-03-04T09:03:18;96583.59;;;2.82;72.93
22582;BME280;47125;48.542;9.052;2023-03-04T09:13:22;96585.41;;;2.82;72.56
22582;BME280;47125;48.542;9.052;2023-03-04T09:23:26;96590.28;;;2.62;74.14
22582;BME280;47125;48.542;9.052;2023-03-04T09:33:30;96579.94;;;2.60;73.05
22582;BME280;47125;48.542;9.052;2023-03-04T09:43:34;96590.41;;;2.68;73.66
22582;BME280;47125;48.542;9.052;2023-03-04T09:53:42;96599.41;;;2.82;73.13
22582;BME280;47125;48.542;9.052;2023-03-04T10:03:50;96585.72;;;3.09;72.35
22582;BME280;47125;48.542;9.052;2023-03-04T10:13:56;96585.72;;;3.09;72.34
22582;BME280;47125;48.542;9.052;2023-03-04T10:24:04;96581.34;;;3.16;71.74
22582;BME280;47125;48.542;9.052;2023-03-04T10:34:14;96579.50;;;3.40;70.54
22582;BME280;47125;48.542;9.052;2023-03-04T10:44:17;96579.63;;;3.09;71.14
22582;BME280;47125;48.542;9.052;2023-03-04T10:54:24;96574.94;;;3.33;70.40
22582;BME280;47125;48.542;9.052;2023-03-04T11:04:31;96572.81;;;3.14;71.17
22582;BME280;47125;48.542;9.052;2023-03-04T11:14:37;96559.25;;;3.55;70.60
22582;BME280;47125;48.542;9.052;2023-03-04T11:24:43;96547.53;;;3.57;68.73
22582;BME280;47125;48.542;9.052;2023-03-04T11:34:47;96543.34;;;3.77;68.43
22582;BME280;47125;48.542;9.052;2023-03-04T11:44:52;96532.16;;;4.05;66.66
22582;BME280;47125;48.542;9.052;2023-03-04T11:55:08;96527.69;;;4.05;67.42
22582;BME280;47125;48.542;9.052;2023-03-04T12:05:22;96515.84;;;4.01;67.12
22582;BME280;47125;48.542;9.052;2023-03-04T12:15:30;96500.16;;;4.50;65.87
22582;BME280;47125;48.542;9.052;2023-03-04T12:25:36;96477.88;;;4.38;64.47
22582;BME280;47125;48.542;9.052;2023-03-04T12:35:41;96466.25;;;5.03;62.24
22582;BME280;47125;48.542;9.052;2023-03-04T12:45:49;96454.25;;;5.00;62.18
22582;BME280;47125;48.542;9.052;2023-03-04T12:55:58;96438.13;;;5.23;61.47
22582;BME280;47125;48.542;9.052;2023-03-04T13:06:05;96433.19;;;5.20;61.21
22582;BME280;47125;48.542;9.052;2023-03-04T13:16:28;96433.56;;;5.10;60.93
22582;BME280;47125;48.542;9.052;2023-03-04T13:26:32;96431.66;;;5.94;59.10
22582;BME280;47125;48.542;9.052;2023-03-04T13:47:07;96420.22;;;5.52;59.64
22582;BME280;47125;48.542;9.052;2023-03-04T13:57:14;96423.19;;;5.84;58.88
22582;BME280;47125;48.542;9.052;2023-03-04T14:07:21;96421.44;;;5.91;58.22
22582;BME280;47125;48.542;9.052;2023-03-04T14:17:26;96409.28;;;6.16;56.72
22582;BME280;47125;48.542;9.052;2023-03-04T14:27:31;96402.88;;;6.51;55.98
22582;BME280;47125;48.542;9.052;2023-03-04T14:37:37;96402.28;;;5.95;57.88
22582;BME280;47125;48.542;9.052;2023-03-04T14:47:45;96390.31;;;6.13;56.81
22582;BME280;47125;48.542;9.052;2023-03-04T14:57:49;96388.94;;;5.76;57.52
22582;BME280;47125;48.542;9.052;2023-03-04T15:18:58;96393.09;;;5.16;58.94
22582;BME280;47125;48.542;9.052;2023-03-04T15:29:02;96396.34;;;4.90;59.30
22582;BME280;47125;48.542;9.052;2023-03-04T15:39:08;96397.09;;;4.35;60.47
22582;BME280;47125;48.542;9.052;2023-03-04T15:49:12;96401.28;;;4.30;60.34
22582;BME280;47125;48.542;9.052;2023-03-04T15:59:16;96395.31;;;4.21;61.34
22582;BME280;47125;48.542;9.052;2023-03-04T16:09:18;96392.78;;;4.13;62.61
22582;BME280;47125;48.542;9.052;2023-03-04T16:19:23;96398.53;;;4.17;62.31
22582;BME280;47125;48.542;9.052;2023-03-04T16:29:26;96408.31;;;4.02;63.43
22582;BME280;47125;48.542;9.052;2023-03-04T16:39:34;96400.53;;;3.79;64.15
22582;BME280;47125;48.542;9.052;2023-03-04T16:49:37;96405.69;;;4.02;63.10
22582;BME280;47125;48.542;9.052;2023-03-04T16:59:41;96395.97;;;3.87;64.37
22582;BME280;47125;48.542;9.052;2023-03-04T17:09:46;96400.75;;;3.99;64.12
22582;BME280;47125;48.542;9.052;2023-03-04T17:19:52;96406.34;;;3.89;64.19
22582;BME280;47125;48.542;9.052;2023-03-04T17:29:54;96421.19;;;3.90;64.08
22582;BME280;47125;48.542;9.052;2023-03-04T17:39:58;96428.47;;;3.88;64.50
22582;BME280;47125;48.542;9.052;2023-03-04T17:50:06;96440.72;;;3.74;65.49
22582;BME280;47125;48.542;9.052;2023-03-04T18:00:10;96436.34;;;3.81;65.32
22582;BME280;47125;48.542;9.052;2023-03-04T18:10:13;96436.69;;;3.93;64.86
22582;BME280;47125;48.542;9.052;2023-03-04T18:20:18;96430.22;;;3.81;65.89
22582;BME280;47125;48.542;9.052;2023-03-04T18:30:23;96434.94;;;3.85;65.59
22582;BME280;47125;48.542;9.052;2023-03-04T18:40:29;96423.44;;;4.08;65.34
22582;BME280;47125;48.542;9.052;2023-03-04T18:50:31;96420.13;;;4.06;64.55
22582;BME280;47125;48.542;9.052;2023-03-04T19:00:35;96418.59;;;4.11;64.73
22582;BME280;47125;48.542;9.052;2023-03-04T19:10:38;96412.91;;;3.93;65.09
22582;BME280;47125;48.542;9.052;2023-03-04T19:20:42;96412.09;;;3.78;65.66
22582;BME280;47125;48.542;9.052;2023-03-04T19:30:44;96414.88;;;3.91;65.52
22582;BME280;47125;48.542;9.052;2023-03-04T19:40:48;96402.25;;;3.86;65.53
22582;BME280;47125;48.542;9.052;2023-03-04T19:50:51;96403.91;;;3.73;65.93
22582;BME280;47125;48.542;9.052;2023-03-04T20:00:54;96391.75;;;3.57;66.32
22582;BME280;47125;48.542;9.052;2023-03-04T20:10:58;96384.63;;;3.58;66.38
22582;BME280;47125;48.542;9.052;2023-03-04T20:21:02;96388.19;;;3.50;66.11
22582;BME280;47125;48.542;9.052;2023-03-04T20:31:08;96404.47;;;3.68;65.96
22582;BME280;47125;48.542;9.052;2023-03-04T20:41:12;96390.28;;;3.90;65.56
22582;BME280;47125;48.542;9.052;2023-03-04T20:51:14;96387.66;;;3.90;65.31
22582;BME280;47125;48.542;9.052;2023-03-04T21:01:18;96388.09;;;3.94;65.18
22582;BME280;47125;48.542;9.052;2023-03-04T21:11:21;96379.31;;;3.87;65.68
22582;BME280;47125;48.542;9.052;2023-03-04T21:21:26;96377.78;;;3.78;65.40
22582;BME280;47125;48.542;9.052;2023-03-04T21:31:30;96368.53;;;3.88;66.12
22582;BME280;47125;48.542;9.052;2023-03-04T21:41:36;96353.88;;;3.86;66.51
22582;BME280;47125;48.542;9.052;2023-03-04T21:51:39;96339.63;;;3.66;66.52
22582;BME280;47125;48.542;9.052;2023-03-04T22:01:43;96327.69;;;3.70;66.64
22582;BME280;47125;48.542;9.052;2023-03-04T22:11:45;96316.88;;;3.65;66.27
22582;BME280;47125;48.542;9.052;2023-03-04T22:21:50;96309.84;;;3.72;66.29
22582;BME280;47125;48.542;9.052;2023-03-04T22:31:52;96308.91;;;3.79;66.13
22582;BME280;47125;48.542;9.052;2023-03-04T22:41:57;96316.81;;;3.79;66.09
22582;BME280;47125;48.542;9.052;2023-03-04T22:52:00;96306.19;;;3.73;66.31
22582;BME280;47125;48.542;9.052;2023-03-04T23:02:04;96303.22;;;3.61;66.20
22582;BME280;47125;48.542;9.052;2023-03-04T23:12:08;96299.91;;;3.74;66.45
22582;BME280;47125;48.542;9.052;2023-03-04T23:22:12;96306.69;;;3.62;66.62
22582;BME280;47125;48.542;9.052;2023-03-04T23:32:15;96286.03;;;3.51;67.07
22582;BME280;47125;48.542;9.052;2023-03-04T23:42:19;96286.88;;;3.51;68.01
22582;BME280;47125;48.542;9.052;2023-03-04T23:52:21;96272.88;;;3.72;68.38
